KRHV 240456Z VRB06KT 10SM SKC 16/10 A2999